sensor_id;sensor_type;location;lat;lon;timestamp;temperature;humidity
14119;DHT22;7138;49.246;9.100;2023-05-19T00:01:36;9.00;99.90
14119;DHT22;7138;49.246;9.100;2023-05-19T00:04:03;9.20;99.90
14119;DHT22;7138;49.246;9.100;2023-05-19T00:06:31;9.10;99.90
14119;DHT22;7138;49.246;9.100;2023-05-19T00:08:59;9.00;99.90
14119;DHT22;7138;49.246;9.100;2023-05-19T00:11:27;9.00;99.90
14119;DHT22;7138;49.246;9.100;2023-05-19T00:13:55;8.90;99.90
14119;DHT22;7138;49.246;9.100;2023-05-19T00:16:25;8.80;99.90
14119;DHT22;7138;49.246;9.100;2023-05-19T00:18:52;8.90;99.90
14119;DHT22;7138;49.246;9.100;2023-05-19T00:21:18;8.80;99.90
14119;DHT22;7138;49.246;9.100;2023-05-19T00:23:45;8.80;99.90
14119;DHT22;7138;49.246;9.100;2023-05-19T00:26:11;8.90;99.90
14119;DHT22;7138;49.246;9.100;2023-05-19T00:28:37;9.10;99.90
14119;DHT22;7138;49.246;9.100;2023-05-19T00:31:04;9.00;99.90
14119;DHT22;7138;49.246;9.100;2023-05-19T00:33:32;9.10;99.90
14119;DHT22;7138;49.246;9.100;2023-05-19T00:35:58;9.10;99.90
14119;DHT22;7138;49.246;9.100;2023-05-19T00:38:24;9.00;99.90
14119;DHT22;7138;49.246;9.100;2023-05-19T00:40:50;9.00;99.90
14119;DHT22;7138;49.246;9.100;2023-05-19T00:43:16;9.00;99.90
14119;DHT22;7138;49.246;9.100;2023-05-19T00:45:42;8.80;99.90
14119;DHT22;7138;49.246;9.100;2023-05-19T00:48:08;8.70;99.90
14119;DHT22;7138;49.246;9.100;2023-05-19T00:50:35;8.70;99.90
14119;DHT22;7138;49.246;9.100;2023-05-19T00:53:01;8.70;99.90
14119;DHT22;7138;49.246;9.100;2023-05-19T00:55:28;8.90;99.90
14119;DHT22;7138;49.246;9.100;2023-05-19T00:57:56;9.00;99.90
14119;DHT22;7138;49.246;9.100;2023-05-19T01:00:23;8.90;99.90
14119;DHT22;7138;49.246;9.100;2023-05-19T01:02:49;8.80;99.90
14119;DHT22;7138;49.246;9.100;2023-05-19T01:05:15;8.70;99.90
14119;DHT22;7138;49.246;9.100;2023-05-19T01:07:43;8.70;99.90
14119;DHT22;7138;49.246;9.100;2023-05-19T01:10:09;8.70;99.90
14119;DHT22;7138;49.246;9.100;2023-05-19T01:12:35;8.60;99.90
14119;DHT22;7138;49.246;9.100;2023-05-19T01:15:02;8.80;99.90
14119;DHT22;7138;49.246;9.100;2023-05-19T01:17:31;8.70;99.90
14119;DHT22;7138;49.246;9.100;2023-05-19T01:20:14;8.60;99.90
14119;DHT22;7138;49.246;9.100;2023-05-19T01:23:13;8.70;99.90
14119;DHT22;7138;49.246;9.100;2023-05-19T01:26:10;8.70;99.90
14119;DHT22;7138;49.246;9.100;2023-05-19T01:29:07;8.70;99.90
14119;DHT22;7138;49.246;9.100;2023-05-19T01:31:47;8.60;99.90
14119;DHT22;7138;49.246;9.100;2023-05-19T01:34:15;8.70;99.90
14119;DHT22;7138;49.246;9.100;2023-05-19T01:36:42;8.90;99.90
14119;DHT22;7138;49.246;9.100;2023-05-19T01:39:13;8.90;99.90
14119;DHT22;7138;49.246;9.100;2023-05-19T01:41:40;8.90;99.90
14119;DHT22;7138;49.246;9.100;2023-05-19T01:44:09;8.90;99.90
14119;DHT22;7138;49.246;9.100;2023-05-19T01:46:36;9.10;99.90
14119;DHT22;7138;49.246;9.100;2023-05-19T01:49:05;9.10;99.90
14119;DHT22;7138;49.246;9.100;2023-05-19T01:51:32;9.00;99.90
14119;DHT22;7138;49.246;9.100;2023-05-19T01:53:58;8.90;99.90
14119;DHT22;7138;49.246;9.100;2023-05-19T01:56:32;8.90;99.90
14119;DHT22;7138;49.246;9.100;2023-05-19T01:59:19;8.90;99.90
14119;DHT22;7138;49.246;9.100;2023-05-19T02:01:56;9.00;99.90
14119;DHT22;7138;49.246;9.100;2023-05-19T02:04:32;9.00;99.90
14119;DHT22;7138;49.246;9.100;2023-05-19T02:07:11;8.90;99.90
14119;DHT22;7138;49.246;9.100;2023-05-19T02:09:51;9.00;99.90
14119;DHT22;7138;49.246;9.100;2023-05-19T02:12:24;8.90;99.90
14119;DHT22;7138;49.246;9.100;2023-05-19T02:14:59;8.90;99.90
14119;DHT22;7138;49.246;9.100;2023-05-19T02:17:31;8.80;99.90
14119;DHT22;7138;49.246;9.100;2023-05-19T02:20:07;8.70;99.90
14119;DHT22;7138;49.246;9.100;2023-05-19T02:22:34;8.70;99.90
14119;DHT22;7138;49.246;9.100;2023-05-19T02:25:00;8.70;99.90
14119;DHT22;7138;49.246;9.100;2023-05-19T02:27:26;8.70;99.90
14119;DHT22;7138;49.246;9.100;2023-05-19T02:29:52;8.70;99.90
14119;DHT22;7138;49.246;9.100;2023-05-19T02:32:19;8.70;99.90
14119;DHT22;7138;49.246;9.100;2023-05-19T02:34:45;8.90;99.90
14119;DHT22;7138;49.246;9.100;2023-05-19T02:37:13;8.80;99.90
14119;DHT22;7138;49.246;9.100;2023-05-19T02:39:39;8.80;99.90
14119;DHT22;7138;49.246;9.100;2023-05-19T02:42:05;8.80;99.90
14119;DHT22;7138;49.246;9.100;2023-05-19T02:44:31;9.00;99.90
14119;DHT22;7138;49.246;9.100;2023-05-19T02:46:56;9.10;99.90
14119;DHT22;7138;49.246;9.100;2023-05-19T02:49:22;9.10;99.90
14119;DHT22;7138;49.246;9.100;2023-05-19T02:51:48;9.10;99.90
14119;DHT22;7138;49.246;9.100;2023-05-19T02:54:15;9.10;99.90
14119;DHT22;7138;49.246;9.100;2023-05-19T02:56:41;9.10;99.90
14119;DHT22;7138;49.246;9.100;2023-05-19T02:59:07;9.00;99.90
14119;DHT22;7138;49.246;9.100;2023-05-19T03:01:33;8.90;99.90
14119;DHT22;7138;49.246;9.100;2023-05-19T03:03:59;8.90;99.90
14119;DHT22;7138;49.246;9.100;2023-05-19T03:06:24;8.90;99.90
14119;DHT22;7138;49.246;9.100;2023-05-19T03:08:50;9.10;99.90
14119;DHT22;7138;49.246;9.100;2023-05-19T03:11:17;9.10;99.90
14119;DHT22;7138;49.246;9.100;2023-05-19T03:13:43;9.00;99.90
14119;DHT22;7138;49.246;9.100;2023-05-19T03:16:09;9.00;99.90
14119;DHT22;7138;49.246;9.100;2023-05-19T03:18:36;9.00;99.90
14119;DHT22;7138;49.246;9.100;2023-05-19T03:21:02;8.90;99.90
14119;DHT22;7138;49.246;9.100;2023-05-19T03:23:28;8.80;99.90
14119;DHT22;7138;49.246;9.100;2023-05-19T03:25:54;8.90;99.90
14119;DHT22;7138;49.246;9.100;2023-05-19T03:28:22;8.80;99.90
14119;DHT22;7138;49.246;9.100;2023-05-19T03:30:48;8.70;99.90
14119;DHT22;7138;49.246;9.100;2023-05-19T03:33:17;8.60;99.90
14119;DHT22;7138;49.246;9.100;2023-05-19T03:35:43;8.60;99.90
14119;DHT22;7138;49.246;9.100;2023-05-19T03:38:09;8.60;99.90
14119;DHT22;7138;49.246;9.100;2023-05-19T03:40:35;8.50;99.90
14119;DHT22;7138;49.246;9.100;2023-05-19T03:43:01;8.50;99.90
14119;DHT22;7138;49.246;9.100;2023-05-19T03:45:28;8.40;99.90
14119;DHT22;7138;49.246;9.100;2023-05-19T03:47:54;8.50;99.90
14119;DHT22;7138;49.246;9.100;2023-05-19T03:50:20;8.40;99.90
14119;DHT22;7138;49.246;9.100;2023-05-19T03:52:47;8.30;99.90
14119;DHT22;7138;49.246;9.100;2023-05-19T03:55:13;8.30;99.90
14119;DHT22;7138;49.246;9.100;2023-05-19T03:57:39;8.50;99.90
14119;DHT22;7138;49.246;9.100;2023-05-19T04:00:09;8.40;99.90
14119;DHT22;7138;49.246;9.100;2023-05-19T04:02:38;8.40;99.90
14119;DHT22;7138;49.246;9.100;2023-05-19T04:05:04;8.50;99.90
14119;DHT22;7138;49.246;9.100;2023-05-19T04:07:30;8.50;99.90
14119;DHT22;7138;49.246;9.100;2023-05-19T04:09:56;8.40;99.90
14119;DHT22;7138;49.246;9.100;2023-05-19T04:12:22;8.40;99.90
14119;DHT22;7138;49.246;9.100;2023-05-19T04:14:48;8.40;99.90
14119;DHT22;7138;49.246;9.100;2023-05-19T04:17:14;8.40;99.90
14119;DHT22;7138;49.246;9.100;2023-05-19T04:19:41;8.40;99.90
14119;DHT22;7138;49.246;9.100;2023-05-19T04:22:07;8.40;99.90
14119;DHT22;7138;49.246;9.100;2023-05-19T04:24:33;8.40;99.90
14119;DHT22;7138;49.246;9.100;2023-05-19T04:26:59;8.50;99.90
14119;DHT22;7138;49.246;9.100;2023-05-19T04:29:26;8.50;99.90
14119;DHT22;7138;49.246;9.100;2023-05-19T04:31:54;8.60;99.90
14119;DHT22;7138;49.246;9.100;2023-05-19T04:34:20;8.60;99.90
14119;DHT22;7138;49.246;9.100;2023-05-19T04:36:47;8.70;99.90
14119;DHT22;7138;49.246;9.100;2023-05-19T04:39:13;8.80;99.90
14119;DHT22;7138;49.246;9.100;2023-05-19T04:41:40;8.80;99.90
14119;DHT22;7138;49.246;9.100;2023-05-19T04:44:06;9.00;99.90
14119;DHT22;7138;49.246;9.100;2023-05-19T04:46:33;8.90;99.90
14119;DHT22;7138;49.246;9.100;2023-05-19T04:48:59;8.90;99.90
14119;DHT22;7138;49.246;9.100;2023-05-19T04:51:25;9.00;99.90
14119;DHT22;7138;49.246;9.100;2023-05-19T04:53:56;9.10;99.90
14119;DHT22;7138;49.246;9.100;2023-05-19T04:56:22;9.10;99.90
14119;DHT22;7138;49.246;9.100;2023-05-19T04:58:48;9.10;99.90
14119;DHT22;7138;49.246;9.100;2023-05-19T05:01:15;9.20;99.90
14119;DHT22;7138;49.246;9.100;2023-05-19T05:03:41;9.30;99.90
14119;DHT22;7138;49.246;9.100;2023-05-19T05:06:07;9.40;99.90
14119;DHT22;7138;49.246;9.100;2023-05-19T05:08:33;9.50;99.90
14119;DHT22;7138;49.246;9.100;2023-05-19T05:11:01;9.60;99.90
14119;DHT22;7138;49.246;9.100;2023-05-19T05:13:27;9.60;99.90
14119;DHT22;7138;49.246;9.100;2023-05-19T05:15:54;9.70;99.90
14119;DHT22;7138;49.246;9.100;2023-05-19T05:18:21;9.80;99.90
14119;DHT22;7138;49.246;9.100;2023-05-19T05:20:47;9.80;99.90
14119;DHT22;7138;49.246;9.100;2023-05-19T05:23:14;10.20;99.90
14119;DHT22;7138;49.246;9.100;2023-05-19T05:25:43;11.00;99.90
14119;DHT22;7138;49.246;9.100;2023-05-19T05:28:10;12.30;99.90
14119;DHT22;7138;49.246;9.100;2023-05-19T05:30:37;13.70;99.90
14119;DHT22;7138;49.246;9.100;2023-05-19T05:33:03;13.80;99.90
14119;DHT22;7138;49.246;9.100;2023-05-19T05:35:29;13.80;99.90
14119;DHT22;7138;49.246;9.100;2023-05-19T05:37:55;13.80;99.90
14119;DHT22;7138;49.246;9.100;2023-05-19T05:40:20;14.30;99.90
14119;DHT22;7138;49.246;9.100;2023-05-19T05:42:46;14.30;99.90
14119;DHT22;7138;49.246;9.100;2023-05-19T05:45:13;14.80;99.90
14119;DHT22;7138;49.246;9.100;2023-05-19T05:47:40;13.80;99.90
14119;DHT22;7138;49.246;9.100;2023-05-19T05:50:08;14.10;99.90
14119;DHT22;7138;49.246;9.100;2023-05-19T05:52:35;14.80;99.90
14119;DHT22;7138;49.246;9.100;2023-05-19T05:55:02;14.90;99.90
14119;DHT22;7138;49.246;9.100;2023-05-19T05:57:29;15.10;99.90
14119;DHT22;7138;49.246;9.100;2023-05-19T05:59:55;15.70;99.90
14119;DHT22;7138;49.246;9.100;2023-05-19T06:02:22;15.70;99.90
14119;DHT22;7138;49.246;9.100;2023-05-19T06:04:48;15.10;99.90
14119;DHT22;7138;49.246;9.100;2023-05-19T06:07:14;13.90;99.90
14119;DHT22;7138;49.246;9.100;2023-05-19T06:09:40;13.40;99.90
14119;DHT22;7138;49.246;9.100;2023-05-19T06:12:06;13.60;99.90
14119;DHT22;7138;49.246;9.100;2023-05-19T06:14:32;13.90;99.90
14119;DHT22;7138;49.246;9.100;2023-05-19T06:16:58;14.30;99.90
14119;DHT22;7138;49.246;9.100;2023-05-19T06:19:25;15.10;99.90
14119;DHT22;7138;49.246;9.100;2023-05-19T06:21:51;15.00;99.90
14119;DHT22;7138;49.246;9.100;2023-05-19T06:24:17;15.60;99.90
14119;DHT22;7138;49.246;9.100;2023-05-19T06:26:43;16.00;99.90
14119;DHT22;7138;49.246;9.100;2023-05-19T06:29:08;16.10;99.90
14119;DHT22;7138;49.246;9.100;2023-05-19T06:31:34;15.80;99.90
14119;DHT22;7138;49.246;9.100;2023-05-19T06:34:00;15.90;99.90
14119;DHT22;7138;49.246;9.100;2023-05-19T06:36:27;14.60;99.90
14119;DHT22;7138;49.246;9.100;2023-05-19T06:38:53;14.90;99.90
14119;DHT22;7138;49.246;9.100;2023-05-19T06:41:19;15.20;99.90
14119;DHT22;7138;49.246;9.100;2023-05-19T06:43:46;15.40;99.90
14119;DHT22;7138;49.246;9.100;2023-05-19T06:46:12;15.00;99.90
14119;DHT22;7138;49.246;9.100;2023-05-19T06:48:38;14.60;99.90
14119;DHT22;7138;49.246;9.100;2023-05-19T06:51:04;15.50;99.90
14119;DHT22;7138;49.246;9.100;2023-05-19T06:53:32;15.20;99.90
14119;DHT22;7138;49.246;9.100;2023-05-19T06:55:59;15.60;99.90
14119;DHT22;7138;49.246;9.100;2023-05-19T06:58:25;15.00;99.90
14119;DHT22;7138;49.246;9.100;2023-05-19T07:00:51;14.90;99.90
14119;DHT22;7138;49.246;9.100;2023-05-19T07:03:16;15.40;99.90
14119;DHT22;7138;49.246;9.100;2023-05-19T07:05:42;15.10;99.90
14119;DHT22;7138;49.246;9.100;2023-05-19T07:08:08;15.00;99.90
14119;DHT22;7138;49.246;9.100;2023-05-19T07:10:35;14.90;99.90
14119;DHT22;7138;49.246;9.100;2023-05-19T07:13:01;15.60;99.90
14119;DHT22;7138;49.246;9.100;2023-05-19T07:15:27;15.40;99.90
14119;DHT22;7138;49.246;9.100;2023-05-19T07:17:53;15.40;99.90
14119;DHT22;7138;49.246;9.100;2023-05-19T07:20:19;16.00;99.90
14119;DHT22;7138;49.246;9.100;2023-05-19T07:22:44;15.60;99.90
14119;DHT22;7138;49.246;9.100;2023-05-19T07:25:10;15.60;99.90
14119;DHT22;7138;49.246;9.100;2023-05-19T07:27:38;15.50;99.90
14119;DHT22;7138;49.246;9.100;2023-05-19T07:30:04;15.50;99.90
14119;DHT22;7138;49.246;9.100;2023-05-19T07:32:31;14.80;99.90
14119;DHT22;7138;49.246;9.100;2023-05-19T07:34:57;14.60;99.90
14119;DHT22;7138;49.246;9.100;2023-05-19T07:37:23;14.50;99.90
14119;DHT22;7138;49.246;9.100;2023-05-19T07:39:49;14.60;99.90
14119;DHT22;7138;49.246;9.100;2023-05-19T07:42:14;14.60;99.90
14119;DHT22;7138;49.246;9.100;2023-05-19T07:44:42;14.40;99.90
14119;DHT22;7138;49.246;9.100;2023-05-19T07:47:07;14.70;99.90
14119;DHT22;7138;49.246;9.100;2023-05-19T07:49:33;14.50;99.90
14119;DHT22;7138;49.246;9.100;2023-05-19T07:51:59;14.70;99.90
14119;DHT22;7138;49.246;9.100;2023-05-19T07:54:25;14.60;99.90
14119;DHT22;7138;49.246;9.100;2023-05-19T07:56:51;15.00;99.90
14119;DHT22;7138;49.246;9.100;2023-05-19T07:59:18;15.00;99.90
14119;DHT22;7138;49.246;9.100;2023-05-19T08:01:45;14.70;99.90
14119;DHT22;7138;49.246;9.100;2023-05-19T08:04:11;14.90;99.90
14119;DHT22;7138;49.246;9.100;2023-05-19T08:06:37;15.20;99.90
14119;DHT22;7138;49.246;9.100;2023-05-19T08:09:03;15.00;99.90
14119;DHT22;7138;49.246;9.100;2023-05-19T08:11:30;15.20;99.90
14119;DHT22;7138;49.246;9.100;2023-05-19T08:13:55;15.70;99.90
14119;DHT22;7138;49.246;9.100;2023-05-19T08:16:21;15.80;99.90
14119;DHT22;7138;49.246;9.100;2023-05-19T08:18:49;16.00;99.90
14119;DHT22;7138;49.246;9.100;2023-05-19T08:21:15;16.60;99.90
14119;DHT22;7138;49.246;9.100;2023-05-19T08:23:41;16.40;99.90
14119;DHT22;7138;49.246;9.100;2023-05-19T08:26:07;17.20;99.90
14119;DHT22;7138;49.246;9.100;2023-05-19T08:28:33;16.70;99.90
14119;DHT22;7138;49.246;9.100;2023-05-19T08:30:58;16.40;99.90
14119;DHT22;7138;49.246;9.100;2023-05-19T08:33:24;16.50;99.90
14119;DHT22;7138;49.246;9.100;2023-05-19T08:35:51;16.90;99.90
14119;DHT22;7138;49.246;9.100;2023-05-19T08:38:17;16.50;99.90
14119;DHT22;7138;49.246;9.100;2023-05-19T08:40:45;17.20;99.90
14119;DHT22;7138;49.246;9.100;2023-05-19T08:43:12;17.20;99.90
14119;DHT22;7138;49.246;9.100;2023-05-19T08:45:41;16.70;99.90
14119;DHT22;7138;49.246;9.100;2023-05-19T08:48:09;16.60;99.90
14119;DHT22;7138;49.246;9.100;2023-05-19T08:50:39;16.60;99.90
14119;DHT22;7138;49.246;9.100;2023-05-19T08:53:13;16.80;99.90
14119;DHT22;7138;49.246;9.100;2023-05-19T08:55:52;16.60;99.90
14119;DHT22;7138;49.246;9.100;2023-05-19T08:58:23;16.30;99.90
14119;DHT22;7138;49.246;9.100;2023-05-19T09:00:50;16.20;99.90
14119;DHT22;7138;49.246;9.100;2023-05-19T09:03:18;16.90;99.90
14119;DHT22;7138;49.246;9.100;2023-05-19T09:05:45;17.20;99.90
14119;DHT22;7138;49.246;9.100;2023-05-19T09:08:13;18.10;99.90
14119;DHT22;7138;49.246;9.100;2023-05-19T09:10:40;18.10;99.90
14119;DHT22;7138;49.246;9.100;2023-05-19T09:13:06;18.50;99.90
14119;DHT22;7138;49.246;9.100;2023-05-19T09:15:32;17.60;99.90
14119;DHT22;7138;49.246;9.100;2023-05-19T09:18:07;17.40;99.90
14119;DHT22;7138;49.246;9.100;2023-05-19T09:20:36;17.00;99.90
14119;DHT22;7138;49.246;9.100;2023-05-19T09:23:04;16.90;99.90
14119;DHT22;7138;49.246;9.100;2023-05-19T09:25:32;16.60;99.90
14119;DHT22;7138;49.246;9.100;2023-05-19T09:27:58;16.70;99.90
14119;DHT22;7138;49.246;9.100;2023-05-19T09:30:24;16.50;99.90
14119;DHT22;7138;49.246;9.100;2023-05-19T09:32:50;16.30;99.90
14119;DHT22;7138;49.246;9.100;2023-05-19T09:35:17;16.60;99.90
14119;DHT22;7138;49.246;9.100;2023-05-19T09:37:44;16.60;99.90
14119;DHT22;7138;49.246;9.100;2023-05-19T09:40:13;16.90;99.90
14119;DHT22;7138;49.246;9.100;2023-05-19T09:42:42;17.00;99.90
14119;DHT22;7138;49.246;9.100;2023-05-19T09:45:09;17.00;99.90
14119;DHT22;7138;49.246;9.100;2023-05-19T09:47:35;17.20;99.90
14119;DHT22;7138;49.246;9.100;2023-05-19T09:50:04;17.50;99.90
14119;DHT22;7138;49.246;9.100;2023-05-19T09:52:34;17.30;99.90
14119;DHT22;7138;49.246;9.100;2023-05-19T09:55:01;17.20;99.90
14119;DHT22;7138;49.246;9.100;2023-05-19T09:57:32;17.30;99.90
14119;DHT22;7138;49.246;9.100;2023-05-19T10:00:04;17.30;99.90
14119;DHT22;7138;49.246;9.100;2023-05-19T10:02:36;17.10;99.90
14119;DHT22;7138;49.246;9.100;2023-05-19T10:05:06;17.20;99.90
14119;DHT22;7138;49.246;9.100;2023-05-19T10:07:35;17.50;99.90
14119;DHT22;7138;49.246;9.100;2023-05-19T10:10:02;17.60;99.90
14119;DHT22;7138;49.246;9.100;2023-05-19T10:12:29;17.40;99.90
14119;DHT22;7138;49.246;9.100;2023-05-19T10:14:56;17.10;99.90
14119;DHT22;7138;49.246;9.100;2023-05-19T10:17:25;16.80;99.90
14119;DHT22;7138;49.246;9.100;2023-05-19T10:19:52;17.00;99.90
14119;DHT22;7138;49.246;9.100;2023-05-19T10:22:19;17.10;99.90
14119;DHT22;7138;49.246;9.100;2023-05-19T10:24:46;16.80;99.90
14119;DHT22;7138;49.246;9.100;2023-05-19T10:27:13;16.80;99.90
14119;DHT22;7138;49.246;9.100;2023-05-19T10:29:41;16.70;99.90
14119;DHT22;7138;49.246;9.100;2023-05-19T10:32:15;16.60;99.90
14119;DHT22;7138;49.246;9.100;2023-05-19T10:35:19;16.80;99.90
14119;DHT22;7138;49.246;9.100;2023-05-19T10:38:07;16.70;99.90
14119;DHT22;7138;49.246;9.100;2023-05-19T10:40:48;16.40;99.90
14119;DHT22;7138;49.246;9.100;2023-05-19T10:43:24;16.60;99.90
14119;DHT22;7138;49.246;9.100;2023-05-19T10:45:57;16.80;99.90
14119;DHT22;7138;49.246;9.100;2023-05-19T10:48:24;16.70;99.90
14119;DHT22;7138;49.246;9.100;2023-05-19T10:50:53;16.60;99.90
14119;DHT22;7138;49.246;9.100;2023-05-19T10:53:21;16.40;99.90
14119;DHT22;7138;49.246;9.100;2023-05-19T10:55:50;16.30;99.90
14119;DHT22;7138;49.246;9.100;2023-05-19T10:58:35;16.20;99.90
14119;DHT22;7138;49.246;9.100;2023-05-19T11:01:06;16.40;99.90
14119;DHT22;7138;49.246;9.100;2023-05-19T11:03:43;16.50;99.90
14119;DHT22;7138;49.246;9.100;2023-05-19T11:06:24;16.90;99.90
14119;DHT22;7138;49.246;9.100;2023-05-19T11:08:54;16.80;99.90
14119;DHT22;7138;49.246;9.100;2023-05-19T11:11:22;16.50;99.90
14119;DHT22;7138;49.246;9.100;2023-05-19T11:13:50;16.60;99.90
14119;DHT22;7138;49.246;9.100;2023-05-19T11:16:26;16.50;99.90
14119;DHT22;7138;49.246;9.100;2023-05-19T11:18:53;16.50;99.90
14119;DHT22;7138;49.246;9.100;2023-05-19T11:21:21;16.40;99.90
14119;DHT22;7138;49.246;9.100;2023-05-19T11:23:47;16.60;99.90
14119;DHT22;7138;49.246;9.100;2023-05-19T11:26:15;16.50;99.90
14119;DHT22;7138;49.246;9.100;2023-05-19T11:29:07;16.30;99.90
14119;DHT22;7138;49.246;9.100;2023-05-19T11:31:35;16.20;99.90
14119;DHT22;7138;49.246;9.100;2023-05-19T11:34:01;16.40;99.90
14119;DHT22;7138;49.246;9.100;2023-05-19T11:36:28;16.40;99.90
14119;DHT22;7138;49.246;9.100;2023-05-19T11:38:56;16.50;99.90
14119;DHT22;7138;49.246;9.100;2023-05-19T11:41:25;16.70;99.90
14119;DHT22;7138;49.246;9.100;2023-05-19T11:43:52;16.60;99.90
14119;DHT22;7138;49.246;9.100;2023-05-19T11:46:18;16.60;99.90
14119;DHT22;7138;49.246;9.100;2023-05-19T11:48:46;16.50;99.90
14119;DHT22;7138;49.246;9.100;2023-05-19T11:51:12;16.70;99.90
14119;DHT22;7138;49.246;9.100;2023-05-19T11:53:40;16.90;99.90
14119;DHT22;7138;49.246;9.100;2023-05-19T11:56:06;16.90;99.90
14119;DHT22;7138;49.246;9.100;2023-05-19T11:58:32;16.60;99.90
14119;DHT22;7138;49.246;9.100;2023-05-19T12:01:02;16.50;99.90
14119;DHT22;7138;49.246;9.100;2023-05-19T12:03:29;16.60;99.90
14119;DHT22;7138;49.246;9.100;2023-05-19T12:05:57;16.80;99.90
14119;DHT22;7138;49.246;9.100;2023-05-19T12:08:23;16.80;99.90
14119;DHT22;7138;49.246;9.100;2023-05-19T12:10:51;16.70;99.90
14119;DHT22;7138;49.246;9.100;2023-05-19T12:13:18;16.50;99.90
14119;DHT22;7138;49.246;9.100;2023-05-19T12:15:44;16.60;99.90
14119;DHT22;7138;49.246;9.100;2023-05-19T12:18:10;16.70;99.90
14119;DHT22;7138;49.246;9.100;2023-05-19T12:20:36;16.40;99.90
14119;DHT22;7138;49.246;9.100;2023-05-19T12:23:02;16.40;99.90
14119;DHT22;7138;49.246;9.100;2023-05-19T12:25:29;16.30;99.90
14119;DHT22;7138;49.246;9.100;2023-05-19T12:28:00;16.10;99.90
14119;DHT22;7138;49.246;9.100;2023-05-19T12:30:30;16.20;99.90
14119;DHT22;7138;49.246;9.100;2023-05-19T12:32:56;16.20;99.90
14119;DHT22;7138;49.246;9.100;2023-05-19T12:35:25;16.30;99.90
14119;DHT22;7138;49.246;9.100;2023-05-19T12:37:52;16.50;99.90
14119;DHT22;7138;49.246;9.100;2023-05-19T12:40:19;16.40;99.90
14119;DHT22;7138;49.246;9.100;2023-05-19T12:42:45;16.40;99.90
14119;DHT22;7138;49.246;9.100;2023-05-19T12:45:14;16.40;99.90
14119;DHT22;7138;49.246;9.100;2023-05-19T12:47:47;16.40;99.90
14119;DHT22;7138;49.246;9.100;2023-05-19T12:50:13;16.50;99.90
14119;DHT22;7138;49.246;9.100;2023-05-19T12:52:41;16.40;99.90
14119;DHT22;7138;49.246;9.100;2023-05-19T12:55:09;16.30;99.90
14119;DHT22;7138;49.246;9.100;2023-05-19T12:57:37;16.30;99.90
14119;DHT22;7138;49.246;9.100;2023-05-19T13:00:06;16.10;99.90
14119;DHT22;7138;49.246;9.100;2023-05-19T13:02:54;16.00;99.90
14119;DHT22;7138;49.246;9.100;2023-05-19T13:05:22;16.20;99.90
14119;DHT22;7138;49.246;9.100;2023-05-19T13:07:55;16.20;99.90
14119;DHT22;7138;49.246;9.100;2023-05-19T13:10:22;16.20;99.90
14119;DHT22;7138;49.246;9.100;2023-05-19T13:12:51;16.20;99.90
14119;DHT22;7138;49.246;9.100;2023-05-19T13:15:17;16.20;99.90
14119;DHT22;7138;49.246;9.100;2023-05-19T13:17:43;16.20;99.90
14119;DHT22;7138;49.246;9.100;2023-05-19T13:20:12;16.20;99.90
14119;DHT22;7138;49.246;9.100;2023-05-19T13:22:38;16.20;99.90
14119;DHT22;7138;49.246;9.100;2023-05-19T13:25:04;16.00;99.90
14119;DHT22;7138;49.246;9.100;2023-05-19T13:27:31;16.00;99.90
14119;DHT22;7138;49.246;9.100;2023-05-19T13:29:57;15.90;99.90
14119;DHT22;7138;49.246;9.100;2023-05-19T13:32:22;15.90;99.90
14119;DHT22;7138;49.246;9.100;2023-05-19T13:34:48;15.80;99.90
14119;DHT22;7138;49.246;9.100;2023-05-19T13:37:15;15.80;99.90
14119;DHT22;7138;49.246;9.100;2023-05-19T13:39:41;15.70;99.90
14119;DHT22;7138;49.246;9.100;2023-05-19T13:42:07;15.70;99.90
14119;DHT22;7138;49.246;9.100;2023-05-19T13:44:33;15.80;99.90
14119;DHT22;7138;49.246;9.100;2023-05-19T13:46:59;15.90;99.90
14119;DHT22;7138;49.246;9.100;2023-05-19T13:49:25;15.80;99.90
14119;DHT22;7138;49.246;9.100;2023-05-19T13:51:55;15.80;99.90
14119;DHT22;7138;49.246;9.100;2023-05-19T13:54:23;15.80;99.90
14119;DHT22;7138;49.246;9.100;2023-05-19T13:56:49;15.80;99.90
14119;DHT22;7138;49.246;9.100;2023-05-19T13:59:15;15.80;99.90
14119;DHT22;7138;49.246;9.100;2023-05-19T14:01:41;15.90;99.90
14119;DHT22;7138;49.246;9.100;2023-05-19T14:04:08;15.90;99.90
14119;DHT22;7138;49.246;9.100;2023-05-19T14:06:33;16.00;99.90
14119;DHT22;7138;49.246;9.100;2023-05-19T14:08:59;16.00;99.90
14119;DHT22;7138;49.246;9.100;2023-05-19T14:11:27;16.00;99.90
14119;DHT22;7138;49.246;9.100;2023-05-19T14:13:52;15.80;99.90
14119;DHT22;7138;49.246;9.100;2023-05-19T14:16:18;15.90;99.90
14119;DHT22;7138;49.246;9.100;2023-05-19T14:18:47;16.00;99.90
14119;DHT22;7138;49.246;9.100;2023-05-19T14:21:15;16.20;99.90
14119;DHT22;7138;49.246;9.100;2023-05-19T14:23:40;16.30;99.90
14119;DHT22;7138;49.246;9.100;2023-05-19T14:26:06;16.40;99.90
14119;DHT22;7138;49.246;9.100;2023-05-19T14:28:33;16.60;99.90
14119;DHT22;7138;49.246;9.100;2023-05-19T14:30:59;16.60;99.90
14119;DHT22;7138;49.246;9.100;2023-05-19T14:33:25;16.70;99.90
14119;DHT22;7138;49.246;9.100;2023-05-19T14:35:51;16.80;99.90
14119;DHT22;7138;49.246;9.100;2023-05-19T14:38:17;16.80;99.90
14119;DHT22;7138;49.246;9.100;2023-05-19T14:40:43;16.80;99.90
14119;DHT22;7138;49.246;9.100;2023-05-19T14:43:09;16.80;99.90
14119;DHT22;7138;49.246;9.100;2023-05-19T14:45:37;16.80;99.90
14119;DHT22;7138;49.246;9.100;2023-05-19T14:48:04;16.50;99.90
14119;DHT22;7138;49.246;9.100;2023-05-19T14:50:30;16.50;99.90
14119;DHT22;7138;49.246;9.100;2023-05-19T14:52:56;16.50;99.90
14119;DHT22;7138;49.246;9.100;2023-05-19T14:55:22;16.50;99.90
14119;DHT22;7138;49.246;9.100;2023-05-19T14:57:48;16.50;99.90
14119;DHT22;7138;49.246;9.100;2023-05-19T15:00:15;16.40;99.90
14119;DHT22;7138;49.246;9.100;2023-05-19T15:02:43;16.40;99.90
14119;DHT22;7138;49.246;9.100;2023-05-19T15:05:09;16.40;99.90
14119;DHT22;7138;49.246;9.100;2023-05-19T15:07:36;16.40;99.90
14119;DHT22;7138;49.246;9.100;2023-05-19T15:10:02;16.40;99.90
14119;DHT22;7138;49.246;9.100;2023-05-19T15:12:28;16.40;99.90
14119;DHT22;7138;49.246;9.100;2023-05-19T15:14:54;16.30;99.90
14119;DHT22;7138;49.246;9.100;2023-05-19T15:17:20;16.30;99.90
14119;DHT22;7138;49.246;9.100;2023-05-19T15:19:47;16.30;99.90
14119;DHT22;7138;49.246;9.100;2023-05-19T15:22:13;16.40;99.90
14119;DHT22;7138;49.246;9.100;2023-05-19T15:24:39;16.40;99.90
14119;DHT22;7138;49.246;9.100;2023-05-19T15:27:06;16.30;99.90
14119;DHT22;7138;49.246;9.100;2023-05-19T15:29:32;16.30;99.90
14119;DHT22;7138;49.246;9.100;2023-05-19T15:31:58;16.30;99.90
14119;DHT22;7138;49.246;9.100;2023-05-19T15:34:24;16.40;99.90
14119;DHT22;7138;49.246;9.100;2023-05-19T15:36:51;16.40;99.90
14119;DHT22;7138;49.246;9.100;2023-05-19T15:39:17;16.40;99.90
14119;DHT22;7138;49.246;9.100;2023-05-19T15:41:43;16.30;99.90
14119;DHT22;7138;49.246;9.100;2023-05-19T15:44:09;16.30;99.90
14119;DHT22;7138;49.246;9.100;2023-05-19T15:46:35;16.40;99.90
14119;DHT22;7138;49.246;9.100;2023-05-19T15:49:01;16.50;99.90
14119;DHT22;7138;49.246;9.100;2023-05-19T15:51:27;16.60;99.90
14119;DHT22;7138;49.246;9.100;2023-05-19T15:53:54;16.70;99.90
14119;DHT22;7138;49.246;9.100;2023-05-19T15:56:20;16.70;99.90